Galva, IA (51020)

11:56 PM CDT on July 07, 2015 (GMT -0500)
Holstein Ag Services, LLC | | Change Station
CLOSE
Current Station
Personal Weather Station
Location: Holstein, IA
Elevation: 1381 ft
Nearby Weather Stations

Elev 1381 ft 42.50 °N, 95.54 °W | Updated 53 seconds ago

Partly Cloudy
Partly Cloudy
57.2 °F
Feels Like 57.2 °F
N
2.0
Wind Variable Wind from East
Gusts 4.0 mph

Today
High -- | Low -- °F
--% Chance of Precip.
Yesterday
High -- | Low -- °F
Precip. -- in
5:51 AM 9:01 PM
Waning Gibbous, 57% visible
Pressure 30.13 in
Visibility 10.0 miles
Clouds Clear
Dew Point 53 °F
Humidity 88%
Rainfall 0.00 in
Snow Depth Not available.
UV 0 out of 12
Pollen 3.60 out of 12
Air Quality Not available.
Flu Activity Not available.
METAR KSLB 080435Z AUTO 07005KT 10SM CLR 12/10 A3013 RMK AO2

More Conditions Fewer Conditions

Pressure 30.13 in
Visibility 10.0 miles
Clouds Clear
Dew Point 53 °F
Humidity 88%
Rainfall 0.00 in
Snow Depth Not available.
UV 0 out of 12
Pollen 3.60 out of 12
Air Quality Not available.
Flu Activity Not available.
METAR KSLB 080435Z AUTO 07005KT 10SM CLR 12/10 A3013 RMK AO2

More Conditions Fewer Conditions

10-Day Weather Forecast

×

Almanac

Astronomy

Jul. 07, 2015 Rise Set
Actual Time
Civil Twilight
Nautical Twilight
Astronomical Twilight
Moon
Length of Visible Light
Length of Day
Tomorrow will be .
, % of the Moon is Illuminated

Today's Extremes

State Highs State Lows

Community

WunderPhotos

Upload Photos

1,836,057 photos uploaded!

WunderBlogs® & News

Nearby

Air Quality

  Air Quality AQ Index Pollutant
Not available.

Snow Depth

Station Depth Elevation

Earthquake Activity

City Distance Mag. Time & Date
Minimum magnitude displayed is 2.5.

Coastal Water Temperatures

Place Temperature

Stations

Nearby Weather Stations

Station Location Temp. Windchill Dew Point Humidity Wind Precip. Elev Updated Type